createdAt,value
2022-09-17T00:01:31.334Z,0.50
2022-09-17T00:04:04.357Z,2.97
2022-09-17T00:06:36.746Z,0.40
2022-09-17T00:09:06.476Z,3.30
2022-09-17T00:11:37.523Z,2.97
2022-09-17T00:14:07.766Z,0.57
2022-09-17T00:16:38.830Z,5.87
2022-09-17T00:19:10.206Z,1.03
2022-09-17T00:21:39.589Z,3.40
2022-09-17T00:24:08.079Z,4.93
2022-09-17T00:26:36.784Z,2.63
2022-09-17T00:29:06.442Z,1.50
2022-09-17T00:31:35.376Z,2.50
2022-09-17T00:34:05.262Z,2.13
2022-09-17T00:36:36.699Z,1.23
2022-09-17T00:39:09.718Z,3.40
2022-09-17T00:41:39.915Z,3.50
2022-09-17T00:44:41.130Z,1.03
2022-09-17T00:47:14.099Z,0.93
2022-09-17T00:49:42.250Z,0.60
2022-09-17T00:52:14.391Z,3.00
2022-09-17T00:54:50.052Z,4.30
2022-09-17T00:57:18.499Z,3.70
2022-09-17T00:59:46.538Z,1.87
2022-09-17T01:02:14.509Z,3.77
2022-09-17T01:04:42.946Z,4.00
2022-09-17T01:07:19.595Z,5.80
2022-09-17T01:09:57.877Z,1.90
2022-09-17T01:12:39.724Z,1.93
2022-09-17T01:15:18.974Z,1.97
2022-09-17T01:17:58.713Z,2.60
2022-09-17T01:20:48.423Z,0.90
2022-09-17T01:23:41.592Z,5.60
2022-09-17T01:26:33.284Z,3.67
2022-09-17T01:29:10.607Z,1.57
2022-09-17T01:31:44.442Z,1.47
2022-09-17T01:34:21.531Z,1.60
2022-09-17T01:37:03.416Z,2.57
2022-09-17T01:39:44.369Z,1.63
2022-09-17T01:42:21.087Z,1.97
2022-09-17T01:44:55.844Z,1.00
2022-09-17T01:47:31.051Z,1.63
2022-09-17T01:50:04.523Z,1.47
2022-09-17T01:52:34.667Z,3.10
2022-09-17T01:55:08.235Z,1.13
2022-09-17T01:57:41.269Z,2.97
2022-09-17T02:00:12.912Z,0.97
2022-09-17T02:02:47.715Z,1.97
2022-09-17T02:05:21.159Z,5.07
2022-09-17T02:07:54.572Z,2.20
2022-09-17T02:10:26.828Z,2.40
2022-09-17T02:13:00.438Z,2.27
2022-09-17T02:15:33.986Z,1.90
2022-09-17T02:18:08.694Z,2.40
2022-09-17T02:20:42.164Z,3.23
2022-09-17T02:23:16.764Z,3.13
2022-09-17T02:25:51.327Z,5.30
2022-09-17T02:28:27.166Z,2.37
2022-09-17T02:30:55.726Z,6.87
2022-09-17T02:33:27.138Z,4.90
2022-09-17T02:35:55.191Z,4.23
2022-09-17T02:38:25.666Z,3.73
2022-09-17T02:40:59.466Z,4.60
2022-09-17T02:43:36.937Z,1.83
2022-09-17T02:46:38.639Z,3.13
2022-09-17T02:49:24.807Z,4.20
2022-09-17T02:52:01.491Z,3.80
2022-09-17T02:54:38.219Z,3.33
2022-09-17T02:57:17.193Z,8.00
2022-09-17T02:59:53.118Z,4.57
2022-09-17T03:02:25.149Z,6.57
2022-09-17T03:04:55.901Z,5.17
2022-09-17T03:07:24.664Z,5.87
2022-09-17T03:09:52.929Z,6.43
2022-09-17T03:12:21.002Z,4.70
2022-09-17T03:14:48.971Z,12.03
2022-09-17T03:17:16.946Z,4.77
2022-09-17T03:19:44.997Z,7.07
2022-09-17T03:22:14.482Z,3.73
2022-09-17T03:24:42.472Z,7.23
2022-09-17T03:27:10.498Z,4.50
2022-09-17T03:29:38.488Z,7.03
2022-09-17T03:32:07.141Z,3.23
2022-09-17T03:34:35.316Z,3.30
2022-09-17T03:37:03.462Z,4.33
2022-09-17T03:39:32.878Z,3.60
2022-09-17T03:42:00.846Z,5.00
2022-09-17T03:44:28.825Z,7.63
2022-09-17T03:46:57.017Z,5.17
2022-09-17T03:49:25.083Z,4.50
2022-09-17T03:51:53.073Z,4.30
2022-09-17T03:54:21.029Z,3.70
2022-09-17T03:56:50.513Z,7.77
2022-09-17T03:59:18.497Z,4.33
2022-09-17T04:01:46.600Z,8.37
2022-09-17T04:04:14.597Z,6.57
2022-09-17T04:06:42.691Z,6.23
2022-09-17T04:09:10.683Z,3.90
2022-09-17T04:11:38.663Z,7.70
2022-09-17T04:14:08.082Z,7.53
2022-09-17T04:16:36.428Z,11.43
2022-09-17T04:19:04.771Z,4.27
2022-09-17T04:21:32.826Z,4.43
2022-09-17T04:24:01.024Z,8.30
2022-09-17T04:26:29.010Z,9.27
2022-09-17T04:28:57.169Z,5.73
2022-09-17T04:31:27.416Z,5.93
2022-09-17T04:33:55.546Z,6.63
2022-09-17T04:36:23.564Z,11.97
2022-09-17T04:38:51.587Z,4.27
2022-09-17T04:41:19.591Z,5.87
2022-09-17T04:43:47.758Z,6.87
2022-09-17T04:46:16.859Z,5.50
2022-09-17T04:48:46.330Z,6.13
2022-09-17T04:51:14.356Z,4.90
2022-09-17T04:53:42.362Z,4.53
2022-09-17T04:56:10.397Z,5.70
2022-09-17T04:58:39.217Z,9.67
2022-09-17T05:01:07.350Z,6.37
2022-09-17T05:03:35.354Z,8.67
2022-09-17T05:06:04.795Z,7.40
2022-09-17T05:08:32.767Z,4.53
2022-09-17T05:11:00.733Z,3.63
2022-09-17T05:13:28.694Z,9.43
2022-09-17T05:15:57.634Z,6.10
2022-09-17T05:18:26.313Z,2.43
2022-09-17T05:20:54.313Z,6.00
2022-09-17T05:23:23.689Z,13.77
2022-09-17T05:25:52.850Z,6.37
2022-09-17T05:28:20.856Z,3.97
2022-09-17T05:30:48.795Z,5.57
2022-09-17T05:33:16.817Z,7.27
2022-09-17T05:35:45.398Z,3.30
2022-09-17T05:38:13.586Z,5.17
2022-09-17T05:40:42.936Z,4.17
2022-09-17T05:43:11.237Z,3.37
2022-09-17T05:45:40.170Z,8.53
2022-09-17T05:48:16.074Z,7.60
2022-09-17T05:50:44.131Z,3.77
2022-09-17T05:53:13.975Z,8.17
2022-09-17T05:55:43.415Z,4.53
2022-09-17T05:58:12.699Z,6.17
2022-09-17T06:00:41.751Z,5.70
2022-09-17T06:03:10.335Z,4.53
2022-09-17T06:05:38.383Z,9.77
2022-09-17T06:08:06.938Z,6.83
2022-09-17T06:10:37.457Z,5.60
2022-09-17T06:13:07.089Z,8.93
2022-09-17T06:15:35.037Z,2.60
2022-09-17T06:18:03.173Z,7.90
2022-09-17T06:20:31.220Z,5.30
2022-09-17T06:22:59.861Z,8.43
2022-09-17T06:25:29.515Z,7.20
2022-09-17T06:27:57.485Z,3.17
2022-09-17T06:30:26.921Z,9.10
2022-09-17T06:32:54.969Z,7.30
2022-09-17T06:35:22.927Z,5.53
2022-09-17T06:37:50.967Z,5.77
2022-09-17T06:40:18.954Z,9.13
2022-09-17T06:42:47.044Z,6.57
2022-09-17T06:45:16.875Z,4.90
2022-09-17T06:47:46.538Z,2.87
2022-09-17T06:50:14.731Z,3.97
2022-09-17T06:52:49.342Z,5.87
2022-09-17T06:55:17.402Z,8.50
2022-09-17T06:57:45.685Z,5.33
2022-09-17T07:00:14.646Z,6.30
2022-09-17T07:02:42.639Z,7.47
2022-09-17T07:05:12.114Z,6.20
2022-09-17T07:07:41.259Z,4.87
2022-09-17T07:10:09.867Z,7.80
2022-09-17T07:12:43.003Z,2.97
2022-09-17T07:15:15.895Z,5.57
2022-09-17T07:17:45.208Z,6.70
2022-09-17T07:20:15.284Z,3.90
2022-09-17T07:22:43.641Z,6.93
2022-09-17T07:25:12.476Z,8.23
2022-09-17T07:27:40.501Z,5.83
2022-09-17T07:30:09.754Z,7.97
2022-09-17T07:32:37.714Z,4.30
2022-09-17T07:35:06.391Z,2.23
2022-09-17T07:37:35.773Z,3.33
2022-09-17T07:40:03.728Z,7.10
2022-09-17T07:42:33.104Z,3.60
2022-09-17T07:45:02.160Z,5.77
2022-09-17T07:47:30.541Z,4.00
2022-09-17T07:49:58.610Z,3.43
2022-09-17T07:52:27.070Z,4.37
2022-09-17T07:54:56.385Z,5.53
2022-09-17T07:57:24.443Z,4.30
2022-09-17T07:59:52.475Z,8.93
2022-09-17T08:02:24.177Z,3.60
2022-09-17T08:04:52.594Z,2.80
2022-09-17T08:07:20.579Z,3.67
2022-09-17T08:09:48.550Z,2.87
2022-09-17T08:12:19.485Z,4.27
2022-09-17T08:14:47.443Z,3.17
2022-09-17T08:17:15.825Z,1.30
2022-09-17T08:19:44.018Z,5.93
2022-09-17T08:22:12.036Z,7.87
2022-09-17T08:24:40.116Z,4.23
2022-09-17T08:27:08.198Z,4.97
2022-09-17T08:29:37.652Z,4.90
2022-09-17T08:32:05.596Z,8.30
2022-09-17T08:34:33.724Z,5.43
2022-09-17T08:37:02.963Z,9.03
2022-09-17T08:39:30.899Z,7.57
2022-09-17T08:42:09.447Z,5.83
2022-09-17T08:44:43.727Z,7.10
2022-09-17T08:47:18.484Z,13.17
2022-09-17T08:49:51.862Z,5.37
2022-09-17T08:52:41.386Z,5.90
2022-09-17T08:55:21.659Z,8.43
2022-09-17T08:57:57.923Z,9.73
2022-09-17T09:00:30.156Z,13.73
2022-09-17T09:03:16.834Z,12.97
2022-09-17T09:05:47.528Z,10.20
2022-09-17T09:08:23.536Z,6.93
2022-09-17T09:10:56.441Z,7.27
2022-09-17T09:13:29.314Z,7.57
2022-09-17T09:16:02.561Z,10.67
2022-09-17T09:18:32.400Z,11.60
2022-09-17T09:21:14.291Z,14.27
2022-09-17T09:23:56.820Z,10.20
2022-09-17T09:26:33.040Z,8.70
2022-09-17T09:29:06.891Z,13.17
2022-09-17T09:32:01.385Z,8.00
2022-09-17T09:34:30.780Z,17.40
2022-09-17T09:37:13.491Z,8.20
2022-09-17T09:39:46.219Z,14.27
2022-09-17T09:42:24.050Z,7.80
2022-09-17T09:44:52.017Z,11.63
2022-09-17T09:47:36.399Z,8.37
2022-09-17T09:50:21.473Z,10.53
2022-09-17T09:53:02.475Z,9.57
2022-09-17T09:55:44.477Z,14.93
2022-09-17T09:58:23.685Z,6.03
2022-09-17T10:00:52.493Z,9.80
2022-09-17T10:03:24.419Z,5.70
2022-09-17T10:05:58.584Z,8.10
2022-09-17T10:08:27.209Z,4.93
2022-09-17T10:10:58.678Z,10.07
2022-09-17T10:13:27.598Z,7.57
2022-09-17T10:15:55.878Z,4.40
2022-09-17T10:18:26.548Z,5.90
2022-09-17T10:21:00.154Z,4.87
2022-09-17T10:23:31.604Z,11.57
2022-09-17T10:25:59.685Z,8.13
2022-09-17T10:28:46.704Z,4.43
2022-09-17T10:31:15.406Z,11.17
2022-09-17T10:33:56.703Z,5.73
2022-09-17T10:36:40.877Z,4.40
2022-09-17T10:39:34.615Z,7.43
2022-09-17T10:42:04.497Z,3.03
2022-09-17T10:44:35.893Z,4.87
2022-09-17T10:47:07.190Z,5.57
2022-09-17T10:49:43.226Z,7.37
2022-09-17T10:52:24.759Z,8.67
2022-09-17T10:55:11.658Z,5.20
2022-09-17T10:57:55.224Z,6.23
2022-09-17T11:00:24.585Z,4.67
2022-09-17T11:03:17.656Z,4.63
2022-09-17T11:06:14.597Z,8.13
2022-09-17T11:08:56.025Z,3.97
2022-09-17T11:11:38.185Z,8.30
2022-09-17T11:14:19.822Z,7.03
2022-09-17T11:16:58.866Z,5.20
2022-09-17T11:19:39.506Z,5.30
2022-09-17T11:22:18.864Z,2.80
2022-09-17T11:25:09.262Z,2.73
2022-09-17T11:27:57.207Z,5.77
2022-09-17T11:30:27.234Z,3.27
2022-09-17T11:33:10.772Z,5.23
2022-09-17T11:35:42.292Z,3.67
2022-09-17T11:38:17.694Z,1.37
2022-09-17T11:40:51.122Z,4.00
2022-09-17T11:43:27.613Z,3.07
2022-09-17T11:46:01.899Z,4.17
2022-09-17T11:48:37.397Z,2.40
2022-09-17T11:51:21.579Z,1.97
2022-09-17T11:53:57.104Z,9.23
2022-09-17T11:56:28.506Z,5.37
2022-09-17T11:59:04.530Z,3.03
2022-09-17T12:01:38.109Z,4.67
2022-09-17T12:04:23.613Z,3.70
2022-09-17T12:06:58.973Z,5.40
2022-09-17T12:09:33.764Z,3.93
2022-09-17T12:12:06.778Z,6.50
2022-09-17T12:14:45.929Z,3.20
2022-09-17T12:17:21.313Z,5.03
2022-09-17T12:19:54.196Z,3.67
2022-09-17T12:22:25.142Z,11.67
2022-09-17T12:24:55.519Z,3.67
2022-09-17T12:27:38.158Z,2.80
2022-09-17T12:30:22.428Z,3.30
2022-09-17T12:33:10.174Z,4.17
2022-09-17T12:36:10.337Z,2.57
2022-09-17T12:39:03.236Z,4.27
2022-09-17T12:41:43.886Z,2.87
2022-09-17T12:44:38.320Z,2.57
2022-09-17T12:47:40.003Z,4.70
2022-09-17T12:50:20.567Z,3.93
2022-09-17T12:53:00.665Z,1.67
2022-09-17T12:55:51.828Z,6.00
2022-09-17T12:58:33.172Z,3.70
2022-09-17T13:01:05.089Z,2.50
2022-09-17T13:03:36.822Z,3.77
2022-09-17T13:06:26.403Z,5.53
2022-09-17T13:09:18.650Z,5.37
2022-09-17T13:12:11.695Z,5.33
2022-09-17T13:14:57.544Z,2.83
2022-09-17T13:17:34.407Z,4.73
2022-09-17T13:20:06.880Z,2.67
2022-09-17T13:22:46.417Z,2.93
2022-09-17T13:25:16.955Z,1.47
2022-09-17T13:27:46.180Z,3.63
2022-09-17T13:30:17.172Z,1.70
2022-09-17T13:32:50.977Z,2.03
2022-09-17T13:35:50.902Z,2.10
2022-09-17T13:38:23.773Z,1.70
2022-09-17T13:40:53.510Z,4.27
2022-09-17T13:43:27.748Z,2.33
2022-09-17T13:46:25.560Z,2.60
2022-09-17T13:49:00.071Z,4.60
2022-09-17T13:51:52.313Z,4.07
2022-09-17T13:54:24.352Z,8.13
2022-09-17T13:57:08.525Z,4.07
2022-09-17T13:59:37.755Z,5.43
2022-09-17T14:02:32.651Z,2.57
2022-09-17T14:05:36.790Z,1.87
2022-09-17T14:08:30.576Z,3.50
2022-09-17T14:11:01.510Z,3.57
2022-09-17T14:13:45.981Z,8.23
2022-09-17T14:16:40.553Z,1.97
2022-09-17T14:19:34.185Z,6.60
2022-09-17T14:22:04.610Z,5.47
2022-09-17T14:24:38.733Z,1.80
2022-09-17T14:27:15.931Z,1.43
2022-09-17T14:30:07.870Z,2.13
2022-09-17T14:32:42.379Z,5.73
2022-09-17T14:35:22.979Z,2.93
2022-09-17T14:37:58.310Z,2.53
2022-09-17T14:40:28.351Z,1.80
2022-09-17T14:42:58.977Z,3.30
2022-09-17T14:45:30.755Z,2.07
2022-09-17T14:48:21.570Z,4.93
2022-09-17T14:50:50.991Z,5.80
2022-09-17T14:53:21.095Z,4.77
2022-09-17T14:55:50.885Z,2.23
2022-09-17T14:58:34.095Z,4.73
2022-09-17T15:01:02.275Z,6.03
2022-09-17T15:03:30.427Z,5.50
2022-09-17T15:06:00.052Z,4.93
2022-09-17T15:08:30.321Z,5.37
2022-09-17T15:11:00.879Z,2.43
2022-09-17T15:13:31.604Z,2.17
2022-09-17T15:16:03.127Z,4.07
2022-09-17T15:18:38.543Z,2.60
2022-09-17T15:21:24.201Z,5.90
2022-09-17T15:23:56.990Z,4.30
2022-09-17T15:26:33.315Z,3.57
2022-09-17T15:29:04.562Z,4.97
2022-09-17T15:31:32.645Z,6.57
2022-09-17T15:34:01.813Z,8.90
2022-09-17T15:36:32.371Z,7.97
2022-09-17T15:39:00.576Z,5.50
2022-09-17T15:41:33.844Z,4.27
2022-09-17T15:44:32.076Z,6.80
2022-09-17T15:47:38.497Z,4.13
2022-09-17T15:50:15.757Z,4.63
2022-09-17T15:52:45.494Z,4.77
2022-09-17T15:55:34.235Z,3.73
2022-09-17T15:58:05.398Z,5.23
2022-09-17T16:00:33.995Z,4.60
2022-09-17T16:03:51.948Z,6.40
2022-09-17T16:06:39.213Z,3.70
2022-09-17T16:09:38.516Z,4.37
2022-09-17T16:12:06.993Z,4.73
2022-09-17T16:14:35.116Z,5.10
2022-09-17T16:17:21.092Z,3.97
2022-09-17T16:19:49.255Z,2.47
2022-09-17T16:22:17.345Z,3.37
2022-09-17T16:24:47.195Z,4.63
2022-09-17T16:27:21.133Z,3.27
2022-09-17T16:29:50.627Z,5.27
2022-09-17T16:32:18.780Z,4.30
2022-09-17T16:34:46.978Z,6.87
2022-09-17T16:37:14.964Z,3.27
2022-09-17T16:39:43.223Z,2.13
2022-09-17T16:42:12.731Z,2.80
2022-09-17T16:44:40.772Z,3.50
2022-09-17T16:47:08.984Z,4.03
2022-09-17T16:49:36.986Z,3.63
2022-09-17T16:52:05.565Z,4.27
2022-09-17T16:54:33.625Z,2.23
2022-09-17T16:57:02.255Z,5.07
2022-09-17T16:59:31.638Z,4.97
2022-09-17T17:02:00.194Z,4.93
2022-09-17T17:04:28.282Z,5.50
2022-09-17T17:06:56.335Z,5.67
2022-09-17T17:09:24.469Z,1.87
2022-09-17T17:11:52.487Z,4.57
2022-09-17T17:14:20.761Z,4.53
2022-09-17T17:16:50.218Z,3.83
2022-09-17T17:19:18.830Z,3.03
2022-09-17T17:21:47.373Z,8.73
2022-09-17T17:24:15.570Z,5.07
2022-09-17T17:26:43.753Z,3.83
2022-09-17T17:29:11.900Z,4.67
2022-09-17T17:31:39.896Z,4.57
2022-09-17T17:34:09.392Z,3.77
2022-09-17T17:36:37.379Z,8.60
2022-09-17T17:39:05.512Z,6.40
2022-09-17T17:41:33.523Z,4.27
2022-09-17T17:44:01.532Z,4.40
2022-09-17T17:46:29.528Z,4.20
2022-09-17T17:48:58.157Z,6.67
2022-09-17T17:51:27.556Z,2.77
2022-09-17T17:53:55.512Z,4.70
2022-09-17T17:56:23.567Z,4.67
2022-09-17T17:58:56.517Z,3.00
2022-09-17T18:01:26.309Z,4.07
2022-09-17T18:03:58.226Z,7.10
2022-09-17T18:06:28.915Z,3.17
2022-09-17T18:08:57.449Z,4.60
2022-09-17T18:11:25.495Z,3.73
2022-09-17T18:13:55.084Z,5.13
2022-09-17T18:16:23.966Z,5.77
2022-09-17T18:18:52.104Z,4.97
2022-09-17T18:21:21.922Z,4.17
2022-09-17T18:23:51.902Z,3.67
2022-09-17T18:26:21.632Z,9.20
2022-09-17T18:28:50.324Z,5.07
2022-09-17T18:31:23.746Z,5.83
2022-09-17T18:33:55.790Z,4.37
2022-09-17T18:36:23.890Z,3.83
2022-09-17T18:39:03.553Z,2.90
2022-09-17T18:41:40.767Z,2.50
2022-09-17T18:44:09.522Z,3.20
2022-09-17T18:46:38.334Z,2.87
2022-09-17T18:49:06.702Z,5.67
2022-09-17T18:51:34.731Z,2.93
2022-09-17T18:54:04.229Z,3.77
2022-09-17T18:56:33.597Z,4.97
2022-09-17T18:59:07.114Z,3.67
2022-09-17T19:01:36.337Z,2.10
2022-09-17T19:04:07.569Z,1.97
2022-09-17T19:06:35.856Z,4.07
2022-09-17T19:09:06.277Z,2.70
2022-09-17T19:11:35.537Z,1.73
2022-09-17T19:14:03.707Z,1.67
2022-09-17T19:16:32.975Z,2.23
2022-09-17T19:19:01.098Z,3.57
2022-09-17T19:21:29.213Z,4.70
2022-09-17T19:23:57.178Z,5.23
2022-09-17T19:26:28.289Z,2.17
2022-09-17T19:28:58.639Z,0.70
2022-09-17T19:31:27.765Z,2.00
2022-09-17T19:33:56.185Z,2.20
2022-09-17T19:36:24.222Z,1.40
2022-09-17T19:38:52.205Z,1.20
2022-09-17T19:41:23.130Z,3.90
2022-09-17T19:43:53.888Z,2.50
2022-09-17T19:46:24.166Z,5.00
2022-09-17T19:48:53.852Z,3.57
2022-09-17T19:51:25.023Z,2.43
2022-09-17T19:53:53.461Z,2.60
2022-09-17T19:56:23.881Z,2.50
2022-09-17T19:58:53.728Z,2.27
2022-09-17T20:01:22.166Z,3.17
2022-09-17T20:03:50.341Z,1.83
2022-09-17T20:06:20.743Z,2.80
2022-09-17T20:08:50.212Z,19.23
2022-09-17T20:11:22.896Z,12.70
2022-09-17T20:13:51.099Z,16.27
2022-09-17T20:16:22.669Z,5.63
2022-09-17T20:18:51.424Z,4.07
2022-09-17T20:21:21.691Z,5.83
2022-09-17T20:23:50.026Z,14.17
2022-09-17T20:26:18.656Z,23.90
2022-09-17T20:28:47.160Z,44.07
2022-09-17T20:31:17.185Z,59.93
2022-09-17T20:33:47.916Z,47.30
2022-09-17T20:36:17.927Z,110.00
2022-09-17T20:41:36.084Z,40.53
2022-09-17T20:44:04.228Z,25.87
2022-09-17T20:46:32.330Z,60.57
2022-09-17T20:49:01.823Z,48.77
2022-09-17T20:51:32.798Z,81.50
2022-09-17T20:54:01.090Z,46.63
2022-09-17T20:56:33.076Z,44.73
2022-09-17T20:59:08.664Z,52.70
2022-09-17T21:01:38.109Z,26.37
2022-09-17T21:04:09.656Z,21.03
2022-09-17T21:06:41.011Z,13.90
2022-09-17T21:09:12.003Z,8.47
2022-09-17T21:11:40.135Z,9.43
2022-09-17T21:14:08.454Z,10.13
2022-09-17T21:16:36.447Z,6.47
2022-09-17T21:19:07.013Z,24.30
2022-09-17T21:21:36.499Z,34.50
2022-09-17T21:24:06.554Z,7.97
2022-09-17T21:26:35.497Z,5.40
2022-09-17T21:29:03.591Z,7.00
2022-09-17T21:31:33.575Z,10.77
2022-09-17T21:34:03.982Z,10.37
2022-09-17T21:36:34.077Z,11.80
2022-09-17T21:39:05.618Z,11.27
2022-09-17T21:41:35.759Z,10.43
2022-09-17T21:44:06.790Z,5.07
2022-09-17T21:46:36.561Z,8.03
2022-09-17T21:49:05.504Z,17.83
2022-09-17T21:51:37.380Z,15.53
2022-09-17T21:54:09.005Z,12.70
2022-09-17T21:56:38.069Z,15.43
2022-09-17T21:59:08.698Z,10.47
2022-09-17T22:01:40.144Z,13.60
2022-09-17T22:04:09.849Z,10.77
2022-09-17T22:06:38.283Z,10.60
2022-09-17T22:09:09.537Z,4.83
2022-09-17T22:11:38.975Z,13.23
2022-09-17T22:14:11.429Z,6.80
2022-09-17T22:16:41.974Z,14.33
2022-09-17T22:19:12.006Z,8.33
2022-09-17T22:21:42.579Z,7.67
2022-09-17T22:24:12.760Z,9.20
2022-09-17T22:26:44.503Z,13.57
2022-09-17T22:29:14.775Z,10.73
2022-09-17T22:31:43.283Z,21.50
2022-09-17T22:34:13.010Z,20.90
2022-09-17T22:36:41.301Z,30.07
2022-09-17T22:39:09.571Z,27.13
2022-09-17T22:41:45.331Z,21.27
2022-09-17T22:44:15.131Z,16.43
2022-09-17T22:46:43.647Z,8.77
2022-09-17T22:49:12.417Z,27.43
2022-09-17T22:51:41.549Z,62.97
2022-09-17T22:54:12.032Z,74.10
2022-09-17T22:56:42.159Z,69.17
2022-09-17T22:59:10.471Z,72.83
2022-09-17T23:01:39.890Z,80.13
2022-09-17T23:04:08.073Z,36.63
2022-09-17T23:06:39.011Z,16.33
2022-09-17T23:09:08.031Z,19.27
2022-09-17T23:11:38.218Z,14.77
2022-09-17T23:14:09.113Z,10.83
2022-09-17T23:16:39.072Z,16.93
2022-09-17T23:19:07.053Z,10.03
2022-09-17T23:21:35.334Z,11.20
2022-09-17T23:24:04.186Z,28.50
2022-09-17T23:26:32.185Z,27.97
2022-09-17T23:29:04.874Z,24.97
2022-09-17T23:31:35.956Z,18.27
2022-09-17T23:34:06.064Z,22.00
2022-09-17T23:36:36.039Z,15.20
2022-09-17T23:39:06.473Z,16.17
2022-09-17T23:41:35.905Z,19.37
2022-09-17T23:44:07.637Z,13.43
2022-09-17T23:46:38.916Z,5.47
2022-09-17T23:49:07.296Z,12.23
2022-09-17T23:51:37.235Z,7.57
2022-09-17T23:54:07.227Z,7.37
2022-09-17T23:56:36.144Z,18.33
2022-09-17T23:59:05.297Z,21.67
